Time;durP1;ratioP1;P1;durP2;ratioP2;P2;SDS_P1;SDS_P2;PMS_P1;PMS_P2;Temp;Humidity;BMP_temperature;BMP_pressure;BME280_temperature;BME280_humidity;BME280_pressure;Samples;Min_cycle;Max_cycle;Signal;HPM_P1;HPM_P2
2022/04/29 00:01:06;;;;;;;3.57;3.33;;;;;;;;;;4950718;28;20666;-61
2022/04/29 00:03:34;;;;;;;3.70;3.50;;;;;;;;;;4951008;29;20214;-61
2022/04/29 00:06:01;;;;;;;5.13;3.70;;;;;;;;;;4950199;29;20227;-61
2022/04/29 00:08:28;;;;;;;3.80;3.50;;;;;;;;;;4955723;28;20254;-61
2022/04/29 00:10:56;;;;;;;3.53;3.30;;;;;;;;;;4963530;28;20665;-61
2022/04/29 00:13:23;;;;;;;5.33;4.07;;;;;;;;;;4953028;28;20835;-61
2022/04/29 00:15:50;;;;;;;4.17;3.67;;;;;;;;;;4952760;28;20210;-61
2022/04/29 00:18:17;;;;;;;5.80;3.50;;;;;;;;;;4952298;28;20203;-61
2022/04/29 00:20:46;;;;;;;3.97;3.57;;;;;;;;;;4957067;28;20206;-60
2022/04/29 00:23:13;;;;;;;3.37;3.17;;;;;;;;;;4965800;28;20315;-61
2022/04/29 00:25:40;;;;;;;3.87;3.57;;;;;;;;;;4953680;28;20211;-61
2022/04/29 00:28:07;;;;;;;5.70;3.50;;;;;;;;;;4958159;28;20239;-61
2022/04/29 00:30:34;;;;;;;6.57;3.57;;;;;;;;;;4955840;28;20206;-61
2022/04/29 00:33:01;;;;;;;4.27;3.53;;;;;;;;;;4968509;28;20268;-61
2022/04/29 00:35:28;;;;;;;3.83;3.57;;;;;;;;;;4959849;28;20198;-61
2022/04/29 00:37:57;;;;;;;4.07;3.77;;;;;;;;;;4958352;28;20312;-61
2022/04/29 00:40:25;;;;;;;3.50;3.13;;;;;;;;;;4967337;28;21029;-61
2022/04/29 00:42:52;;;;;;;4.20;3.87;;;;;;;;;;4958173;28;20219;-61
2022/04/29 00:45:20;;;;;;;3.90;3.60;;;;;;;;;;4950964;28;20258;-61
2022/04/29 00:47:48;;;;;;;4.47;3.60;;;;;;;;;;4958460;28;20308;-61
2022/04/29 00:50:16;;;;;;;4.20;3.90;;;;;;;;;;4952355;28;20677;-62
2022/04/29 00:52:44;;;;;;;4.20;3.77;;;;;;;;;;4959173;28;20211;-62
2022/04/29 00:55:14;;;;;;;4.17;3.87;;;;;;;;;;4951090;28;20207;-62
2022/04/29 00:57:44;;;;;;;3.77;3.57;;;;;;;;;;4954496;28;20258;-62
2022/04/29 01:00:14;;;;;;;5.17;3.80;;;;;;;;;;4948505;28;20230;-62
2022/04/29 01:02:42;;;;;;;6.30;3.87;;;;;;;;;;4951289;28;20561;-61
2022/04/29 01:05:10;;;;;;;4.30;4.00;;;;;;;;;;4955831;28;20308;-61
2022/04/29 01:07:38;;;;;;;4.33;3.97;;;;;;;;;;4955330;28;20313;-62
2022/04/29 01:10:06;;;;;;;4.00;3.63;;;;;;;;;;4945742;28;20781;-62
2022/04/29 01:12:35;;;;;;;5.33;4.40;;;;;;;;;;4949285;29;20270;-61
2022/04/29 01:15:04;;;;;;;4.13;3.80;;;;;;;;;;4948600;29;20604;-61
2022/04/29 01:17:31;;;;;;;3.60;3.40;;;;;;;;;;4947448;29;20207;-63
2022/04/29 01:20:01;;;;;;;4.20;3.90;;;;;;;;;;4948742;29;20258;-61
2022/04/29 01:22:30;;;;;;;6.53;3.87;;;;;;;;;;4950433;28;20214;-62
2022/04/29 01:24:57;;;;;;;3.40;3.30;;;;;;;;;;4948826;29;20209;-61
2022/04/29 01:27:24;;;;;;;3.77;3.47;;;;;;;;;;4950012;29;21362;-62
2022/04/29 01:29:57;;;;;;;6.23;4.20;;;;;;;;;;4950022;29;20219;-62
2022/04/29 01:32:24;;;;;;;5.03;4.33;;;;;;;;;;4949253;29;20348;-61
2022/04/29 01:34:51;;;;;;;4.20;3.80;;;;;;;;;;4949871;28;20215;-61
2022/04/29 01:37:18;;;;;;;4.90;4.40;;;;;;;;;;4949586;29;20666;-62
2022/04/29 01:39:47;;;;;;;6.60;4.97;;;;;;;;;;4949882;29;20211;-62
2022/04/29 01:42:14;;;;;;;8.60;5.03;;;;;;;;;;4948232;28;20207;-61
2022/04/29 01:44:41;;;;;;;6.13;4.93;;;;;;;;;;4949937;29;20270;-61
2022/04/29 01:47:08;;;;;;;6.43;4.30;;;;;;;;;;4949563;28;20227;-61
2022/04/29 01:49:35;;;;;;;5.17;4.73;;;;;;;;;;4949755;29;20258;-61
2022/04/29 01:52:02;;;;;;;5.63;4.60;;;;;;;;;;4949098;29;20635;-61
2022/04/29 01:54:29;;;;;;;7.23;4.30;;;;;;;;;;4949539;29;20214;-61
2022/04/29 01:56:57;;;;;;;4.83;4.43;;;;;;;;;;4949575;29;20215;-61
2022/04/29 01:59:24;;;;;;;4.57;4.17;;;;;;;;;;4949750;29;20237;-61
2022/04/29 02:01:51;;;;;;;7.40;4.17;;;;;;;;;;4948588;29;20211;-61
2022/04/29 02:04:18;;;;;;;5.17;4.10;;;;;;;;;;4938012;29;20681;-61
2022/04/29 02:06:45;;;;;;;4.97;4.27;;;;;;;;;;4946808;29;20227;-62
2022/04/29 02:09:12;;;;;;;3.97;3.67;;;;;;;;;;4946173;29;20978;-61
2022/04/29 02:11:39;;;;;;;4.53;4.13;;;;;;;;;;4945516;29;20219;-61
2022/04/29 02:14:08;;;;;;;4.20;3.90;;;;;;;;;;4948649;28;20210;-62
2022/04/29 02:16:35;;;;;;;4.87;4.47;;;;;;;;;;4947617;29;20211;-61
2022/04/29 02:19:02;;;;;;;5.67;5.13;;;;;;;;;;4949345;28;20238;-61
2022/04/29 02:21:29;;;;;;;5.50;5.00;;;;;;;;;;4951246;29;20199;-61
2022/04/29 02:23:56;;;;;;;5.50;4.53;;;;;;;;;;4950524;28;20317;-62
2022/04/29 02:26:23;;;;;;;5.17;4.60;;;;;;;;;;4951450;29;20577;-61
2022/04/29 02:28:50;;;;;;;4.93;4.33;;;;;;;;;;4950237;29;20226;-61
2022/04/29 02:31:19;;;;;;;4.20;3.83;;;;;;;;;;4951646;28;20630;-61
2022/04/29 02:33:46;;;;;;;4.80;4.23;;;;;;;;;;4950648;28;20218;-61
2022/04/29 02:36:13;;;;;;;4.17;3.80;;;;;;;;;;4951356;29;20274;-61
2022/04/29 02:38:40;;;;;;;4.97;4.47;;;;;;;;;;4952028;28;20586;-61
2022/04/29 02:41:07;;;;;;;4.30;4.00;;;;;;;;;;4950727;29;20206;-62
2022/04/29 02:43:35;;;;;;;4.37;3.97;;;;;;;;;;4950965;28;20217;-62
2022/04/29 02:46:02;;;;;;;5.57;4.33;;;;;;;;;;4950255;29;20211;-61
2022/04/29 02:48:31;;;;;;;4.27;3.87;;;;;;;;;;4948578;29;20223;-61
2022/04/29 02:50:58;;;;;;;5.47;4.20;;;;;;;;;;4950645;29;20267;-61
2022/04/29 02:53:25;;;;;;;8.03;3.83;;;;;;;;;;4950042;29;20208;-62
2022/04/29 02:55:52;;;;;;;5.70;3.83;;;;;;;;;;4950536;28;20211;-61
2022/04/29 02:58:19;;;;;;;5.13;4.07;;;;;;;;;;4951128;29;20203;-61
2022/04/29 03:00:46;;;;;;;4.83;3.90;;;;;;;;;;4951373;29;20670;-61
2022/04/29 03:03:13;;;;;;;5.77;3.73;;;;;;;;;;4945012;29;20262;-61
2022/04/29 03:05:42;;;;;;;5.73;4.00;;;;;;;;;;4950935;28;20645;-61
2022/04/29 03:08:09;;;;;;;3.70;3.50;;;;;;;;;;4951259;28;20235;-61
2022/04/29 03:10:36;;;;;;;4.07;3.73;;;;;;;;;;4951469;28;20207;-61
2022/04/29 03:13:03;;;;;;;5.23;3.97;;;;;;;;;;4952372;28;20736;-61
2022/04/29 03:15:30;;;;;;;3.67;3.37;;;;;;;;;;4951536;28;20258;-61
2022/04/29 03:20:57;;;;;;;4.67;4.17;;;;;;;;;;4909251;29;20530;-61
2022/04/29 03:23:24;;;;;;;7.67;4.53;;;;;;;;;;4933390;28;20317;-61
2022/04/29 03:25:51;;;;;;;3.97;3.63;;;;;;;;;;4953321;28;20207;-61
2022/04/29 03:28:18;;;;;;;4.77;4.17;;;;;;;;;;4953920;28;20230;-61
2022/04/29 03:30:46;;;;;;;4.73;4.10;;;;;;;;;;4957987;28;20617;-61
2022/04/29 03:33:13;;;;;;;5.13;3.97;;;;;;;;;;4953472;28;20649;-61
2022/04/29 03:35:40;;;;;;;4.30;3.90;;;;;;;;;;4959373;28;20291;-61
2022/04/29 03:38:09;;;;;;;7.70;5.53;;;;;;;;;;4955194;28;20203;-61
2022/04/29 03:40:36;;;;;;;6.33;4.70;;;;;;;;;;4951869;28;20552;-61
2022/04/29 03:43:03;;;;;;;12.47;5.97;;;;;;;;;;4950615;28;20758;-62
2022/04/29 03:45:30;;;;;;;5.33;4.73;;;;;;;;;;4949150;28;20623;-62
2022/04/29 03:47:57;;;;;;;4.73;4.27;;;;;;;;;;4957436;28;20277;-61
2022/04/29 03:50:25;;;;;;;4.50;4.07;;;;;;;;;;4956264;28;20211;-61
2022/04/29 03:52:53;;;;;;;5.10;4.40;;;;;;;;;;4961849;28;20321;-61
2022/04/29 03:55:22;;;;;;;4.07;3.77;;;;;;;;;;4966117;28;20207;-61
2022/04/29 03:57:49;;;;;;;8.17;5.50;;;;;;;;;;4953144;28;20260;-61
2022/04/29 04:00:17;;;;;;;6.97;4.47;;;;;;;;;;4948487;28;20211;-61
2022/04/29 04:02:44;;;;;;;7.17;5.03;;;;;;;;;;4952190;28;20564;-61
2022/04/29 04:05:12;;;;;;;5.63;5.03;;;;;;;;;;4958361;28;20230;-61
2022/04/29 04:07:39;;;;;;;6.43;4.73;;;;;;;;;;4955615;28;20237;-60
2022/04/29 04:10:07;;;;;;;4.63;4.23;;;;;;;;;;4913677;28;1033639;-61
2022/04/29 04:12:42;;;;;;;10.50;7.20;;;;;;;;;;4949651;28;20466;-61
2022/04/29 04:15:10;;;;;;;18.90;8.93;;;;;;;;;;4949423;29;20685;-61
2022/04/29 04:17:37;;;;;;;12.43;7.27;;;;;;;;;;4949516;29;20210;-61
2022/04/29 04:20:05;;;;;;;11.93;7.70;;;;;;;;;;4950595;29;20203;-60
2022/04/29 04:22:35;;;;;;;12.97;7.67;;;;;;;;;;4950655;28;20211;-61
2022/04/29 04:25:02;;;;;;;12.73;7.47;;;;;;;;;;4949965;29;20215;-60
2022/04/29 04:27:29;;;;;;;7.63;6.07;;;;;;;;;;4949166;28;20215;-60
2022/04/29 04:29:57;;;;;;;7.73;6.27;;;;;;;;;;4948445;28;20207;-60
2022/04/29 04:32:25;;;;;;;6.03;5.10;;;;;;;;;;4949650;29;20207;-61
2022/04/29 04:34:53;;;;;;;13.97;5.60;;;;;;;;;;4949208;29;20580;-60
2022/04/29 04:37:21;;;;;;;6.13;4.90;;;;;;;;;;4950222;28;20203;-61
2022/04/29 04:39:48;;;;;;;6.53;4.77;;;;;;;;;;4949121;29;20317;-61
2022/04/29 04:42:16;;;;;;;7.80;5.30;;;;;;;;;;4945541;29;20286;-60
2022/04/29 04:44:43;;;;;;;6.87;5.03;;;;;;;;;;4949769;29;20625;-61
2022/04/29 04:47:11;;;;;;;5.07;4.57;;;;;;;;;;4949513;28;20207;-60
2022/04/29 04:49:38;;;;;;;5.13;4.20;;;;;;;;;;4945343;29;20237;-61
2022/04/29 04:52:05;;;;;;;5.17;4.57;;;;;;;;;;4948341;29;20215;-61
2022/04/29 04:54:33;;;;;;;5.07;4.50;;;;;;;;;;4949239;29;20266;-60
2022/04/29 04:57:00;;;;;;;4.60;4.20;;;;;;;;;;4949738;29;20243;-61
2022/04/29 04:59:27;;;;;;;5.83;5.07;;;;;;;;;;4949246;29;20203;-60
2022/04/29 05:01:54;;;;;;;8.63;5.43;;;;;;;;;;4946780;29;20811;-61
2022/04/29 05:04:22;;;;;;;5.10;4.60;;;;;;;;;;4949357;28;20286;-61
2022/04/29 05:06:49;;;;;;;6.00;4.93;;;;;;;;;;4948886;28;20227;-60
2022/04/29 05:09:16;;;;;;;7.23;4.83;;;;;;;;;;4948888;28;20281;-59
2022/04/29 05:11:43;;;;;;;5.47;4.97;;;;;;;;;;4947686;29;20207;-60
2022/04/29 05:14:10;;;;;;;5.53;4.80;;;;;;;;;;4949962;29;20210;-60
2022/04/29 05:16:37;;;;;;;5.30;4.83;;;;;;;;;;4947298;28;20227;-60
2022/04/29 05:19:04;;;;;;;5.70;4.70;;;;;;;;;;4949898;29;20626;-60
2022/04/29 05:21:33;;;;;;;5.60;4.43;;;;;;;;;;4950524;29;20210;-61
2022/04/29 05:24:00;;;;;;;4.93;4.53;;;;;;;;;;4950655;28;20666;-60
2022/04/29 05:26:27;;;;;;;6.90;4.70;;;;;;;;;;4949347;29;20203;-62
2022/04/29 05:28:54;;;;;;;5.70;5.10;;;;;;;;;;4949901;29;20954;-62
2022/04/29 05:31:21;;;;;;;8.83;5.27;;;;;;;;;;4950122;29;20246;-60
2022/04/29 05:33:48;;;;;;;5.97;4.13;;;;;;;;;;4949066;28;20302;-61
2022/04/29 05:36:15;;;;;;;6.93;4.47;;;;;;;;;;4939426;29;20207;-60
2022/04/29 05:44:13;;;;;;;4.90;4.40;;;;;;;;;;4940097;29;20206;-62
2022/04/29 05:46:40;;;;;;;8.03;5.13;;;;;;;;;;4949896;29;20218;-61
2022/04/29 05:49:07;;;;;;;5.77;5.17;;;;;;;;;;4949696;29;20726;-61
2022/04/29 05:51:34;;;;;;;7.73;4.97;;;;;;;;;;4941384;29;20215;-65
2022/04/29 05:54:03;;;;;;;5.03;4.53;;;;;;;;;;4949669;28;20214;-61
2022/04/29 05:56:36;;;;;;;5.67;4.60;;;;;;;;;;4946168;29;20255;-59
2022/04/29 05:59:03;;;;;;;5.70;4.73;;;;;;;;;;4943490;29;20294;-58
2022/04/29 06:01:30;;;;;;;5.30;4.80;;;;;;;;;;4949561;29;20741;-59
2022/04/29 06:03:57;;;;;;;7.67;5.07;;;;;;;;;;4949378;29;20396;-60
2022/04/29 06:06:24;;;;;;;7.60;5.53;;;;;;;;;;4949094;29;20845;-58
2022/04/29 06:08:51;;;;;;;5.27;4.77;;;;;;;;;;4948014;29;20289;-60
2022/04/29 06:11:19;;;;;;;6.57;4.60;;;;;;;;;;4947748;29;20635;-58
2022/04/29 06:13:48;;;;;;;6.87;4.80;;;;;;;;;;4949001;29;20257;-58
2022/04/29 06:16:17;;;;;;;5.27;4.77;;;;;;;;;;4949346;29;20210;-60
2022/04/29 06:18:44;;;;;;;6.57;4.80;;;;;;;;;;4948445;29;20207;-58
2022/04/29 06:21:11;;;;;;;9.83;4.90;;;;;;;;;;4948756;29;20211;-59
2022/04/29 06:23:38;;;;;;;7.40;4.90;;;;;;;;;;4948732;29;20237;-58
2022/04/29 06:26:05;;;;;;;6.33;5.07;;;;;;;;;;4949232;29;20218;-61
2022/04/29 06:28:33;;;;;;;6.83;4.93;;;;;;;;;;4945213;29;20239;-58
2022/04/29 06:31:00;;;;;;;5.53;4.93;;;;;;;;;;4954798;28;20203;-58
2022/04/29 06:33:27;;;;;;;4.90;4.37;;;;;;;;;;4953758;28;20218;-59
2022/04/29 06:35:55;;;;;;;6.10;5.50;;;;;;;;;;4947326;29;20273;-58
2022/04/29 06:38:22;;;;;;;7.13;5.00;;;;;;;;;;4930302;29;20215;-59
2022/04/29 06:40:50;;;;;;;6.70;5.50;;;;;;;;;;4934395;29;20726;-59
2022/04/29 06:43:17;;;;;;;5.80;4.17;;;;;;;;;;4949673;29;20730;-58
2022/04/29 06:45:45;;;;;;;6.70;4.73;;;;;;;;;;4947296;28;20589;-59
2022/04/29 06:48:12;;;;;;;4.60;4.20;;;;;;;;;;4948601;29;20238;-62
2022/04/29 06:50:40;;;;;;;6.10;5.10;;;;;;;;;;4947997;29;20781;-59
2022/04/29 06:53:07;;;;;;;6.20;4.73;;;;;;;;;;4948719;28;20755;-59
2022/04/29 06:55:37;;;;;;;5.30;4.80;;;;;;;;;;4948404;29;20214;-59
2022/04/29 06:58:04;;;;;;;4.80;4.30;;;;;;;;;;4948514;29;20207;-59
2022/04/29 07:00:31;;;;;;;5.70;5.00;;;;;;;;;;4948306;28;20211;-59
2022/04/29 07:03:02;;;;;;;6.63;4.70;;;;;;;;;;4948980;28;20215;-59
2022/04/29 07:05:30;;;;;;;4.37;3.97;;;;;;;;;;4950741;28;20227;-59
2022/04/29 07:07:57;;;;;;;7.20;4.53;;;;;;;;;;4952746;29;20278;-59
2022/04/29 07:10:25;;;;;;;5.57;4.03;;;;;;;;;;4952327;29;20777;-59
2022/04/29 07:12:52;;;;;;;5.23;4.73;;;;;;;;;;4952010;29;20266;-60
2022/04/29 07:15:19;;;;;;;4.80;4.10;;;;;;;;;;4952289;29;20215;-59
2022/04/29 07:17:46;;;;;;;7.10;4.53;;;;;;;;;;4951420;29;20241;-59
2022/04/29 07:20:15;;;;;;;8.53;5.30;;;;;;;;;;4952049;28;20665;-59
2022/04/29 07:22:43;;;;;;;4.47;4.07;;;;;;;;;;4951765;29;20560;-59
2022/04/29 07:25:10;;;;;;;4.90;4.50;;;;;;;;;;4952069;28;20211;-59
2022/04/29 07:27:38;;;;;;;6.63;5.13;;;;;;;;;;4952138;29;20480;-59
2022/04/29 07:30:07;;;;;;;6.87;5.33;;;;;;;;;;4951554;29;20219;-59
2022/04/29 07:32:34;;;;;;;8.33;5.53;;;;;;;;;;4951902;28;20219;-59
2022/04/29 07:43:17;;;;;;;7.47;4.67;;;;;;;;;;4951019;29;20689;-60
2022/04/29 07:45:44;;;;;;;6.03;5.10;;;;;;;;;;4951405;29;20262;-59
2022/04/29 07:48:11;;;;;;;6.43;4.83;;;;;;;;;;4950451;28;20253;-59
2022/04/29 07:50:39;;;;;;;5.43;4.40;;;;;;;;;;4950021;29;20648;-59
2022/04/29 07:53:08;;;;;;;5.88;4.72;;;;;;;;;;4950754;28;20211;-59
2022/04/29 07:55:35;;;;;;;5.50;4.43;;;;;;;;;;4950808;29;20213;-59
2022/04/29 07:58:03;;;;;;;17.58;4.90;;;;;;;;;;4951004;29;20835;-59
2022/04/29 08:00:31;;;;;;;9.73;5.15;;;;;;;;;;4951062;28;20749;-59
2022/04/29 08:03:00;;;;;;;5.10;4.68;;;;;;;;;;4950002;28;20214;-59
2022/04/29 08:05:27;;;;;;;5.90;4.30;;;;;;;;;;4950576;29;20265;-59
2022/04/29 08:07:55;;;;;;;6.47;4.65;;;;;;;;;;4950398;28;20211;-59
2022/04/29 08:10:24;;;;;;;6.03;4.78;;;;;;;;;;4950453;28;20258;-59
2022/04/29 08:12:51;;;;;;;4.35;4.05;;;;;;;;;;4950284;29;20222;-60
2022/04/29 08:15:19;;;;;;;5.00;3.85;;;;;;;;;;4934645;29;20226;-59
2022/04/29 08:17:46;;;;;;;4.68;4.30;;;;;;;;;;4930578;29;20223;-59
2022/04/29 08:20:13;;;;;;;10.48;4.28;;;;;;;;;;4950756;29;20670;-59
2022/04/29 08:22:42;;;;;;;5.18;4.63;;;;;;;;;;4950957;29;20218;-60
2022/04/29 08:25:09;;;;;;;4.88;3.63;;;;;;;;;;4950640;29;20336;-59
2022/04/29 08:27:37;;;;;;;4.00;3.70;;;;;;;;;;4950562;29;20214;-59
2022/04/29 08:30:06;;;;;;;4.82;4.03;;;;;;;;;;4950508;28;20230;-60
2022/04/29 08:32:37;;;;;;;4.78;4.22;;;;;;;;;;4950767;28;20225;-59
2022/04/29 08:35:05;;;;;;;4.70;3.60;;;;;;;;;;4950532;28;20214;-60
2022/04/29 08:37:32;;;;;;;3.97;3.67;;;;;;;;;;4950517;28;20242;-59
2022/04/29 08:40:00;;;;;;;5.28;3.72;;;;;;;;;;4950447;29;20582;-59
2022/04/29 08:42:28;;;;;;;5.60;3.80;;;;;;;;;;4948916;28;20595;-60
2022/04/29 08:44:59;;;;;;;4.13;3.83;;;;;;;;;;4949306;29;20262;-59
2022/04/29 08:47:29;;;;;;;4.05;3.40;;;;;;;;;;4950286;28;20218;-60
2022/04/29 08:49:56;;;;;;;4.22;3.92;;;;;;;;;;4949885;29;20227;-60
2022/04/29 08:52:23;;;;;;;6.95;3.95;;;;;;;;;;4950550;28;20206;-59
2022/04/29 09:00:25;;;;;;;3.78;3.47;;;;;;;;;;4950333;29;20284;-61
2022/04/29 09:02:52;;;;;;;4.15;3.50;;;;;;;;;;4950251;28;20903;-60
2022/04/29 09:05:19;;;;;;;4.75;3.60;;;;;;;;;;4949468;28;20274;-60
2022/04/29 09:07:56;;;;;;;4.20;3.90;;;;;;;;;;4949973;29;20270;-60
2022/04/29 09:10:23;;;;;;;3.80;3.60;;;;;;;;;;4958775;28;20284;-60
2022/04/29 09:12:51;;;;;;;3.63;3.42;;;;;;;;;;4956941;28;20206;-60
2022/04/29 09:15:18;;;;;;;3.20;3.03;;;;;;;;;;4967994;28;20206;-60
2022/04/29 09:17:47;;;;;;;3.55;3.25;;;;;;;;;;4963133;28;20674;-61
2022/04/29 09:20:16;;;;;;;3.40;3.10;;;;;;;;;;4950791;28;20254;-61
2022/04/29 09:22:44;;;;;;;2.70;2.60;;;;;;;;;;4963377;28;20213;-60
2022/04/29 09:25:11;;;;;;;3.15;2.70;;;;;;;;;;4951333;28;20215;-58
2022/04/29 09:27:53;;;;;;;3.05;2.85;;;;;;;;;;4959008;28;20274;-61
2022/04/29 09:30:20;;;;;;;3.50;3.30;;;;;;;;;;4965417;28;20273;-61
2022/04/29 09:32:49;;;;;;;2.83;2.72;;;;;;;;;;4950375;29;20215;-59
2022/04/29 09:35:16;;;;;;;3.40;3.17;;;;;;;;;;4951382;28;20246;-60
2022/04/29 09:39:26;;;;;;;2.90;2.70;;;;;;;;;;4953804;28;20207;-60
2022/04/29 09:40:37;;;;;;;3.50;3.30;;;;;;;;;;4969183;28;20195;-58
2022/04/29 09:43:04;;;;;;;4.95;3.30;;;;;;;;;;4967894;28;20668;-58
2022/04/29 09:45:32;;;;;;;3.10;2.83;;;;;;;;;;4958916;28;20262;-59
2022/04/29 09:48:00;;;;;;;3.30;3.00;;;;;;;;;;4954952;28;20266;-59
2022/04/29 09:50:45;;;;;;;5.03;2.60;;;;;;;;;;4962739;28;20233;-60
2022/04/29 09:53:23;;;;;;;4.22;2.40;;;;;;;;;;4960184;28;20344;-61
2022/04/29 09:56:07;;;;;;;5.93;2.80;;;;;;;;;;4949517;29;20676;-60
2022/04/29 09:58:34;;;;;;;2.67;2.47;;;;;;;;;;4949786;29;20215;-61
2022/04/29 10:01:04;;;;;;;2.50;2.33;;;;;;;;;;4949955;29;20270;-62
2022/04/29 10:03:33;;;;;;;3.00;2.30;;;;;;;;;;4950110;28;20301;-61
2022/04/29 10:06:01;;;;;;;2.55;2.33;;;;;;;;;;4958593;28;20237;-59
2022/04/29 10:08:29;;;;;;;2.10;2.03;;;;;;;;;;4956533;28;20239;-61
2022/04/29 10:10:56;;;;;;;1.92;1.80;;;;;;;;;;4949338;29;20230;-59
2022/04/29 10:13:24;;;;;;;2.20;2.10;;;;;;;;;;4949434;28;20211;-59
2022/04/29 10:15:52;;;;;;;1.80;1.80;;;;;;;;;;4949495;29;20211;-58
2022/04/29 10:21:16;;;;;;;3.28;2.17;;;;;;;;;;4949515;29;20281;-59
2022/04/29 10:23:48;;;;;;;2.20;2.10;;;;;;;;;;4949424;28;20215;-58
2022/04/29 10:26:17;;;;;;;2.50;2.22;;;;;;;;;;4949690;28;20206;-59
2022/04/29 10:28:44;;;;;;;2.17;2.10;;;;;;;;;;4949212;29;20349;-63
2022/04/29 10:31:17;;;;;;;3.25;2.50;;;;;;;;;;4949213;29;20847;-61
2022/04/29 10:33:44;;;;;;;2.33;2.17;;;;;;;;;;4949415;29;20211;-58
2022/04/29 10:36:15;;;;;;;2.42;2.30;;;;;;;;;;4948949;28;20670;-60
2022/04/29 10:38:46;;;;;;;2.45;2.30;;;;;;;;;;4949430;28;20895;-60
2022/04/29 10:41:17;;;;;;;2.78;2.10;;;;;;;;;;4952802;28;20207;-60
2022/04/29 10:44:05;;;;;;;2.42;2.30;;;;;;;;;;4951958;29;20509;-59
2022/04/29 10:46:32;;;;;;;4.10;2.08;;;;;;;;;;4953164;28;20207;-60
2022/04/29 10:49:19;;;;;;;2.40;2.00;;;;;;;;;;4952721;29;20207;-60
2022/04/29 10:51:49;;;;;;;2.10;2.03;;;;;;;;;;4941041;29;20678;-60
2022/04/29 10:54:16;;;;;;;2.42;2.28;;;;;;;;;;4952954;28;20207;-60
2022/04/29 10:56:43;;;;;;;2.33;2.17;;;;;;;;;;4951908;28;20207;-60
2022/04/29 10:59:15;;;;;;;4.10;3.72;;;;;;;;;;4951525;29;20594;-62
2022/04/29 11:01:42;;;;;;;119.07;58.42;;;;;;;;;;4952449;28;20215;-59
2022/04/29 11:04:29;;;;;;;3.65;3.05;;;;;;;;;;4952618;29;20488;-57
2022/04/29 11:06:57;;;;;;;2.13;2.08;;;;;;;;;;4938354;29;20287;-58
2022/04/29 11:09:28;;;;;;;24.77;8.45;;;;;;;;;;4933429;29;20321;-57
2022/04/29 11:11:55;;;;;;;2.35;2.25;;;;;;;;;;4933538;29;20219;-58
2022/04/29 11:14:22;;;;;;;37.38;17.17;;;;;;;;;;4931788;29;20208;-59
2022/04/29 11:16:52;;;;;;;63.65;25.05;;;;;;;;;;4918866;29;20209;-66
2022/04/29 11:19:20;;;;;;;20.83;9.00;;;;;;;;;;4914364;29;20220;-59
2022/04/29 11:24:42;;;;;;;3.80;3.47;;;;;;;;;;4931030;29;20267;-60
2022/04/29 11:27:09;;;;;;;1.90;1.48;;;;;;;;;;4931602;29;20211;-60
2022/04/29 11:29:42;;;;;;;5.15;1.83;;;;;;;;;;4932902;29;20216;-59
2022/04/29 11:32:09;;;;;;;9.07;4.45;;;;;;;;;;4932839;29;20303;-60
2022/04/29 11:34:37;;;;;;;14.60;6.53;;;;;;;;;;4932892;29;20219;-59
2022/04/29 11:37:04;;;;;;;2.50;2.30;;;;;;;;;;4932400;29;20291;-59
2022/04/29 11:39:36;;;;;;;7.25;4.63;;;;;;;;;;4932504;29;20215;-60
2022/04/29 11:42:04;;;;;;;3.75;2.05;;;;;;;;;;4932566;29;20754;-60
2022/04/29 11:44:35;;;;;;;4.78;2.65;;;;;;;;;;4932193;29;20208;-59
2022/04/29 11:47:02;;;;;;;1.90;1.90;;;;;;;;;;4932238;29;20251;-59
2022/04/29 11:49:32;;;;;;;2.13;2.03;;;;;;;;;;4932064;29;20211;-59
2022/04/29 11:51:59;;;;;;;1.70;1.60;;;;;;;;;;4931771;29;20208;-59
2022/04/29 11:54:26;;;;;;;2.13;1.70;;;;;;;;;;4931300;29;20211;-59
2022/04/29 11:56:53;;;;;;;2.05;1.95;;;;;;;;;;4931901;29;20212;-59
2022/04/29 11:59:21;;;;;;;2.10;2.10;;;;;;;;;;4931762;29;20215;-59
2022/04/29 12:01:48;;;;;;;1.90;1.80;;;;;;;;;;4932023;29;20219;-59
2022/04/29 12:04:15;;;;;;;2.17;1.88;;;;;;;;;;4931977;29;20724;-60
2022/04/29 12:06:56;;;;;;;2.33;1.85;;;;;;;;;;4931636;29;20299;-60
2022/04/29 12:09:31;;;;;;;2.72;1.83;;;;;;;;;;4941188;29;20329;-59
2022/04/29 12:11:59;;;;;;;2.53;1.92;;;;;;;;;;4950688;29;20730;-60
2022/04/29 12:14:27;;;;;;;2.05;1.95;;;;;;;;;;4932310;29;20212;-59
2022/04/29 12:16:55;;;;;;;3.67;2.60;;;;;;;;;;4941325;29;20210;-60
2022/04/29 12:19:22;;;;;;;2.42;2.33;;;;;;;;;;4950592;29;20215;-60
2022/04/29 12:21:56;;;;;;;2.92;2.50;;;;;;;;;;4951505;28;20207;-59
2022/04/29 12:24:23;;;;;;;2.55;2.35;;;;;;;;;;4951309;29;20302;-59
2022/04/29 12:27:04;;;;;;;2.30;2.08;;;;;;;;;;4950608;28;20207;-58
2022/04/29 12:29:33;;;;;;;2.90;2.70;;;;;;;;;;4951582;28;20222;-59
2022/04/29 12:35:05;;;;;;;2.25;2.25;;;;;;;;;;4951082;29;20207;-59
2022/04/29 12:37:32;;;;;;;2.50;2.30;;;;;;;;;;4951613;28;20297;-59
2022/04/29 12:40:04;;;;;;;2.55;2.25;;;;;;;;;;4951350;28;20254;-59
2022/04/29 12:42:32;;;;;;;2.53;2.42;;;;;;;;;;4951303;29;20678;-60
2022/04/29 12:45:05;;;;;;;2.13;1.98;;;;;;;;;;4950717;29;20215;-58
2022/04/29 12:47:32;;;;;;;2.33;2.22;;;;;;;;;;4950926;28;20270;-58
2022/04/29 12:50:14;;;;;;;2.13;2.10;;;;;;;;;;4949720;29;20203;-58
2022/04/29 12:52:50;;;;;;;2.17;2.00;;;;;;;;;;4948825;29;20260;-59
2022/04/29 12:55:17;;;;;;;2.13;2.03;;;;;;;;;;4951143;29;20206;-59
2022/04/29 12:57:44;;;;;;;1.88;1.88;;;;;;;;;;4950271;29;20214;-59
2022/04/29 13:00:21;;;;;;;2.70;1.92;;;;;;;;;;4950314;29;21045;-59
2022/04/29 13:02:58;;;;;;;2.20;2.13;;;;;;;;;;4950064;28;20273;-59
2022/04/29 13:05:26;;;;;;;1.90;1.80;;;;;;;;;;4950103;28;20230;-59
2022/04/29 13:07:53;;;;;;;3.92;2.83;;;;;;;;;;4950398;28;20302;-59
2022/04/29 13:10:20;;;;;;;2.00;2.00;;;;;;;;;;4931177;29;20666;-59
2022/04/29 13:12:47;;;;;;;2.40;2.30;;;;;;;;;;4930928;29;20266;-59
2022/04/29 13:15:16;;;;;;;2.50;2.30;;;;;;;;;;4930953;29;20210;-59
2022/04/29 13:17:43;;;;;;;1.75;1.75;;;;;;;;;;4930944;29;20271;-59
2022/04/29 13:20:11;;;;;;;2.10;2.00;;;;;;;;;;4931028;29;20265;-59
2022/04/29 13:22:39;;;;;;;1.83;1.83;;;;;;;;;;4931379;29;20270;-59
2022/04/29 13:25:06;;;;;;;1.88;1.77;;;;;;;;;;4926577;29;20294;-59
2022/04/29 13:27:34;;;;;;;1.92;1.85;;;;;;;;;;4931660;29;20686;-59
2022/04/29 13:30:01;;;;;;;1.83;1.80;;;;;;;;;;4929559;29;20579;-59
2022/04/29 13:32:29;;;;;;;2.10;2.00;;;;;;;;;;4931508;29;20272;-60
2022/04/29 13:34:56;;;;;;;2.50;2.40;;;;;;;;;;4930773;29;20259;-61
2022/04/29 13:37:24;;;;;;;2.33;2.13;;;;;;;;;;4926994;29;20867;-65
2022/04/29 13:39:51;;;;;;;2.33;2.15;;;;;;;;;;4930922;29;20222;-59
2022/04/29 13:42:19;;;;;;;2.17;2.08;;;;;;;;;;4929205;29;20204;-59
2022/04/29 13:44:46;;;;;;;2.28;2.17;;;;;;;;;;4931029;29;20270;-58
2022/04/29 13:47:14;;;;;;;2.55;2.38;;;;;;;;;;4930796;29;20208;-59
2022/04/29 13:49:43;;;;;;;3.20;3.00;;;;;;;;;;4927054;29;20254;-60
2022/04/29 13:54:54;;;;;;;2.00;2.00;;;;;;;;;;4926858;29;20211;-59
2022/04/29 13:57:23;;;;;;;3.53;3.22;;;;;;;;;;4927714;29;20922;-60
2022/04/29 13:59:50;;;;;;;2.88;2.63;;;;;;;;;;4931212;29;20230;-60
2022/04/29 14:02:17;;;;;;;2.58;2.45;;;;;;;;;;4930249;29;20262;-62
2022/04/29 14:04:45;;;;;;;2.70;2.45;;;;;;;;;;4931115;29;20216;-60
2022/04/29 14:07:13;;;;;;;2.88;2.30;;;;;;;;;;4929867;29;21056;-65
2022/04/29 14:09:40;;;;;;;2.30;2.20;;;;;;;;;;4943188;29;20238;-60
2022/04/29 14:12:11;;;;;;;2.38;2.22;;;;;;;;;;4949071;28;20281;-61
2022/04/29 14:14:38;;;;;;;3.40;2.33;;;;;;;;;;4950593;28;20273;-70
2022/04/29 14:17:29;;;;;;;1.92;1.90;;;;;;;;;;4953401;29;20207;-68
2022/04/29 14:19:58;;;;;;;3.10;2.05;;;;;;;;;;4937766;29;20207;-60
2022/04/29 14:22:25;;;;;;;2.00;1.90;;;;;;;;;;4949702;29;20257;-60
2022/04/29 14:24:52;;;;;;;2.63;2.53;;;;;;;;;;4952339;29;20207;-60
2022/04/29 14:27:20;;;;;;;2.90;2.72;;;;;;;;;;4953379;28;20623;-60
2022/04/29 14:29:48;;;;;;;2.80;2.70;;;;;;;;;;4953694;28;20282;-60
2022/04/29 14:32:15;;;;;;;2.70;2.60;;;;;;;;;;4953499;29;20230;-62
2022/04/29 14:34:43;;;;;;;2.28;2.08;;;;;;;;;;4953530;29;20631;-60
2022/04/29 14:37:13;;;;;;;4.22;2.33;;;;;;;;;;4952878;29;20207;-61
2022/04/29 14:39:40;;;;;;;2.25;2.15;;;;;;;;;;4953333;29;20275;-56
2022/04/29 14:42:08;;;;;;;2.00;2.00;;;;;;;;;;4952974;29;20228;-57
2022/04/29 14:44:35;;;;;;;2.30;2.20;;;;;;;;;;4952465;29;20215;-57
2022/04/29 14:47:02;;;;;;;2.00;2.00;;;;;;;;;;4953270;29;20219;-58
2022/04/29 14:49:29;;;;;;;2.10;2.00;;;;;;;;;;4952799;29;20210;-56
2022/04/29 14:51:57;;;;;;;2.00;1.90;;;;;;;;;;4953246;29;20234;-56
2022/04/29 14:54:25;;;;;;;1.90;1.90;;;;;;;;;;4953347;29;20207;-57
2022/04/29 14:56:53;;;;;;;1.95;1.92;;;;;;;;;;4952136;29;20269;-56
2022/04/29 14:59:20;;;;;;;1.95;1.90;;;;;;;;;;4952755;29;20301;-57
2022/04/29 15:01:47;;;;;;;2.03;1.92;;;;;;;;;;4950736;28;20266;-55
2022/04/29 15:04:16;;;;;;;2.28;2.10;;;;;;;;;;4951887;29;20277;-56
2022/04/29 15:06:43;;;;;;;2.30;2.05;;;;;;;;;;4950522;28;20294;-57
2022/04/29 15:17:26;;;;;;;2.55;2.45;;;;;;;;;;4944304;29;20326;-59
2022/04/29 15:19:54;;;;;;;2.45;2.30;;;;;;;;;;4950488;29;20219;-58
2022/04/29 15:22:22;;;;;;;2.60;2.47;;;;;;;;;;4952496;28;20211;-59
2022/04/29 15:24:49;;;;;;;2.28;2.17;;;;;;;;;;4952437;28;20215;-58
2022/04/29 15:27:17;;;;;;;5.50;2.15;;;;;;;;;;4944747;29;20685;-58
2022/04/29 15:29:44;;;;;;;3.47;2.17;;;;;;;;;;4952701;29;20203;-58
2022/04/29 15:32:11;;;;;;;2.47;2.28;;;;;;;;;;4952239;29;20239;-59